MiSS Sydney — WDH2300 — position and weather

sailwx.info

Track history (hours):
 
Tides and Currents Weather Stations Pressure Air Temp Water Temp Dewpoint Dewpoint Depression Visibility Wind Speed Wind Dir Waves Ship Positions

MiSS Sydney

Owner: Broussard Brothers, Inc., Abbeville, LA. More information available from US FCC via Universal Licensing System and Coast Guard Vessel Documentation Center.

Last reported at 2017-Sep-25 06:29 UTC. Time now 2017-Sep-25 09:56 UTC.
Position N 29°33' W 090°24'.

Length 21 m; draft 2.5 m.

Type: Towing. MMSI: 367596190.

Date/timePositionNaut miles runAvg speedWind from/ knotsBaromVisibWave heightAir tempDewpointWater temp
2017-Sep-25 06:29N 29°33' W 090°24'1 1.2
2017-Sep-25 06:00N 29°33' W 090°25'0 0.0
2017-Sep-25 05:28N 29°33' W 090°25'3 2.6
2017-Sep-25 04:17N 29°33' W 090°28'1 2.8
2017-Sep-25 03:59N 29°34' W 090°29'1 2.7
2017-Sep-25 03:30N 29°34' W 090°31'2 3.3
2017-Sep-25 03:01N 29°34' W 090°32'2 3.5
2017-Sep-25 02:31N 29°34' W 090°34'2 4.1
2017-Sep-25 02:00N 29°35' W 090°37'2 3.8
2017-Sep-25 01:31N 29°35' W 090°39'3 5.0
2017-Sep-25 01:00N 29°36' W 090°41'2 3.4
2017-Sep-25 00:30N 29°35' W 090°43'2 4.4
2017-Sep-25 00:01N 29°34' W 090°44'3 5.6
2017-Sep-24 23:30N 29°32' W 090°47'68 2.9
2017-Sep-23 23:46N 29°49' W 092°03'2 7.8
2017-Sep-23 23:30N 29°48' W 092°05'4 7.6
2017-Sep-23 23:00N 29°47' W 092°10'1 2.8
2017-Sep-23 22:30N 29°47' W 092°11'0 0.0
2017-Sep-23 22:00N 29°47' W 092°11'0 0.0
2017-Sep-23 21:30N 29°47' W 092°11'0 0.0
2017-Sep-23 21:00N 29°47' W 092°11'0 0.0
2017-Sep-23 20:30N 29°47' W 092°11'0 0.0
2017-Sep-23 20:00N 29°47' W 092°11'  
2017-Sep-17 19:13N 29°49' W 092°03'2 7.0
2017-Sep-17 19:00N 29°48' W 092°04'3 7.1
2017-Sep-17 18:30N 29°47' W 092°08'2 3.8
2017-Sep-17 18:00N 29°47' W 092°10'0 0.4
2017-Sep-17 17:30N 29°47' W 092°10'1 1.6
2017-Sep-17 17:00N 29°47' W 092°11'0 0.0
2017-Sep-17 16:30N 29°47' W 092°11'0 0.0
2017-Sep-17 16:00N 29°47' W 092°11'0 0.0
2017-Sep-17 15:30N 29°47' W 092°11'0 0.0
2017-Sep-17 15:00N 29°47' W 092°11'0 0.0
2017-Sep-17 14:30N 29°47' W 092°11'0 0.0
2017-Sep-17 14:00N 29°47' W 092°11'0 0.0
2017-Sep-17 13:30N 29°47' W 092°11'0 0.0
2017-Sep-17 13:00N 29°47' W 092°11'0 0.0
2017-Sep-17 12:30N 29°47' W 092°11'0 0.0
2017-Sep-17 12:00N 29°47' W 092°11'0 0.0
2017-Sep-17 11:30N 29°47' W 092°11'0 0.0
2017-Sep-17 11:00N 29°47' W 092°11'0 0.0
2017-Sep-17 10:30N 29°47' W 092°11'0 0.0
2017-Sep-17 10:00N 29°47' W 092°11'0 0.0
2017-Sep-17 09:30N 29°47' W 092°11'0 0.0
2017-Sep-17 09:00N 29°47' W 092°11'0 0.0
2017-Sep-17 08:30N 29°47' W 092°11'0 0.0
2017-Sep-17 08:00N 29°47' W 092°11'0 0.0
2017-Sep-17 07:30N 29°47' W 092°11'0 0.0
2017-Sep-17 07:00N 29°47' W 092°11'0 0.0
2017-Sep-17 06:30N 29°47' W 092°11'0 0.0
2017-Sep-17 06:00N 29°47' W 092°11'0 0.0
2017-Sep-17 05:30N 29°47' W 092°11'1 1.8
2017-Sep-17 04:59N 29°46' W 092°11'3 6.9
2017-Sep-17 04:30N 29°44' W 092°14'3 6.8
2017-Sep-17 04:00N 29°41' W 092°15'7 0.2
2017-Sep-15 17:30N 29°47' W 092°10'  
Track history (hours):
 
Tides and Currents Weather Stations Pressure Air Temp Water Temp Dewpoint Dewpoint Depression Visibility Wind Speed Wind Dir Waves Ship Positions

MiSS Sydney

Owner: Broussard Brothers, Inc., Abbeville, LA. More information available from US FCC via Universal Licensing System and Coast Guard Vessel Documentation Center.

Last reported at 2017-Sep-25 06:29 UTC. Time now 2017-Sep-25 09:56 UTC.
Position N 29°33' W 090°24'.

Length 21 m; draft 2.5 m.

Type: Towing. MMSI: 367596190.

Date/timePositionNaut miles runAvg speedWind from/ knotsBaromVisibWave heightAir tempDewpointWater temp
2017-Sep-25 06:29N 29°33' W 090°24'1 1.2
2017-Sep-25 06:00N 29°33' W 090°25'0 0.0
2017-Sep-25 05:28N 29°33' W 090°25'3 2.6
2017-Sep-25 04:17N 29°33' W 090°28'1 2.8
2017-Sep-25 03:59N 29°34' W 090°29'1 2.7
2017-Sep-25 03:30N 29°34' W 090°31'2 3.3
2017-Sep-25 03:01N 29°34' W 090°32'2 3.5
2017-Sep-25 02:31N 29°34' W 090°34'2 4.1
2017-Sep-25 02:00N 29°35' W 090°37'2 3.8
2017-Sep-25 01:31N 29°35' W 090°39'3 5.0
2017-Sep-25 01:00N 29°36' W 090°41'2 3.4
2017-Sep-25 00:30N 29°35' W 090°43'2 4.4
2017-Sep-25 00:01N 29°34' W 090°44'3 5.6
2017-Sep-24 23:30N 29°32' W 090°47'68 2.9
2017-Sep-23 23:46N 29°49' W 092°03'2 7.8
2017-Sep-23 23:30N 29°48' W 092°05'4 7.6
2017-Sep-23 23:00N 29°47' W 092°10'1 2.8
2017-Sep-23 22:30N 29°47' W 092°11'0 0.0
2017-Sep-23 22:00N 29°47' W 092°11'0 0.0
2017-Sep-23 21:30N 29°47' W 092°11'0 0.0
2017-Sep-23 21:00N 29°47' W 092°11'0 0.0
2017-Sep-23 20:30N 29°47' W 092°11'0 0.0
2017-Sep-23 20:00N 29°47' W 092°11'  
2017-Sep-17 19:13N 29°49' W 092°03'2 7.0
2017-Sep-17 19:00N 29°48' W 092°04'3 7.1
2017-Sep-17 18:30N 29°47' W 092°08'2 3.8
2017-Sep-17 18:00N 29°47' W 092°10'0 0.4
2017-Sep-17 17:30N 29°47' W 092°10'1 1.6
2017-Sep-17 17:00N 29°47' W 092°11'0 0.0
2017-Sep-17 16:30N 29°47' W 092°11'0 0.0
2017-Sep-17 16:00N 29°47' W 092°11'0 0.0
2017-Sep-17 15:30N 29°47' W 092°11'0 0.0
2017-Sep-17 15:00N 29°47' W 092°11'0 0.0
2017-Sep-17 14:30N 29°47' W 092°11'0 0.0
2017-Sep-17 14:00N 29°47' W 092°11'0 0.0
2017-Sep-17 13:30N 29°47' W 092°11'0 0.0
2017-Sep-17 13:00N 29°47' W 092°11'0 0.0
2017-Sep-17 12:30N 29°47' W 092°11'0 0.0
2017-Sep-17 12:00N 29°47' W 092°11'0 0.0
2017-Sep-17 11:30N 29°47' W 092°11'0 0.0
2017-Sep-17 11:00N 29°47' W 092°11'0 0.0
2017-Sep-17 10:30N 29°47' W 092°11'0 0.0
2017-Sep-17 10:00N 29°47' W 092°11'0 0.0
2017-Sep-17 09:30N 29°47' W 092°11'0 0.0
2017-Sep-17 09:00N 29°47' W 092°11'0 0.0
2017-Sep-17 08:30N 29°47' W 092°11'0 0.0
2017-Sep-17 08:00N 29°47' W 092°11'0 0.0
2017-Sep-17 07:30N 29°47' W 092°11'0 0.0
2017-Sep-17 07:00N 29°47' W 092°11'0 0.0
2017-Sep-17 06:30N 29°47' W 092°11'0 0.0
2017-Sep-17 06:00N 29°47' W 092°11'0 0.0
2017-Sep-17 05:30N 29°47' W 092°11'1 1.8
2017-Sep-17 04:59N 29°46' W 092°11'3 6.9
2017-Sep-17 04:30N 29°44' W 092°14'3 6.8
2017-Sep-17 04:00N 29°41' W 092°15'7 0.2
2017-Sep-15 17:30N 29°47' W 092°10'  

Dump ship's entire track history